Grand Tower, Illinois
Current Conditions -  °F | °C
As of 11:52 AM on Friday 19 Dec 2014 (Local Time) from KMDH Reporting Station
Overcast Overcast  
Wind Chill: 32°   Ceiling: 3500
Heat Index: 36°   Visibility: 9mi
Dew Point: 27°   Wind: 5mph
Humidity: 70%   Direction: 40°NE
Pressure: 30.29"   Gusts: NA
Location:  37.63°N, 89.5°W
Report Text: KMDH 191752Z 04004KT 9SM FEW017 OVC035 02/M03 A3029 RMK AO2 SLP260 T00221028 10022 20000 58004
Loading
Personal Weather Stations






























Interactive Weather Map New forecast layout! Learn more

10-Day Weather Forecast

Advertisements
Track Severe Weather on mobile